Young, AZ (85554)

10:18 AM MST on May 24, 2015 (GMT -0700)
KAZYOUNG4 | | Change Station
CLOSE
Current Station
Personal Weather Station
Location: Young, AZ
Elevation: 5328 ft
Nearby Weather Stations

Elev 5328 ft 34.09 °N, 111.00 °W | Updated 17 minutes ago

Clear
Clear
62.7 °F
Feels Like 62.7 °F
N
4.0
Wind Variable Wind from SW
Gusts 7.0 mph

Today
High -- | Low -- °F
--% Chance of Precip.
Yesterday
High -- | Low -- °F
Precip. -- in
5:17 AM 7:25 PM
Waxing Crescent, 40% visible
Pressure 30.05 in
Visibility 10.0 miles
Clouds Few 5000 ft
Few 6000 ft
Dew Point 37 °F
Humidity 39%
Rainfall 0.00 in
Snow Depth Not available.
UV 9 out of 12
Pollen 4.50 out of 12
Air Quality Not available.
Flu Activity Local Activity
METAR KPAN 241655Z AUTO 23006KT 10SM FEW050 FEW060 16/02 A3005 RMK AO2

More Conditions Fewer Conditions

Pressure 30.05 in
Visibility 10.0 miles
Clouds Few 5000 ft
Few 6000 ft
Dew Point 37 °F
Humidity 39%
Rainfall 0.00 in
Snow Depth Not available.
UV 9 out of 12
Pollen 4.50 out of 12
Air Quality Not available.
Flu Activity Local Activity
METAR KPAN 241655Z AUTO 23006KT 10SM FEW050 FEW060 16/02 A3005 RMK AO2

More Conditions Fewer Conditions

10-Day Weather Forecast

Almanac

Astronomy

May. 24, 2015 Rise Set
Actual Time
Civil Twilight
Nautical Twilight
Astronomical Twilight
Moon
Length of Visible Light
Length of Day
Tomorrow will be .
, % of the Moon is Illuminated

Today's Extremes

State Highs State Lows

Community

WunderPhotos

Upload Photos

1,823,799 photos uploaded!

WunderBlogs® & News

Nearby

Air Quality

  Air Quality AQ Index Pollutant
Not available.

Snow Depth

Station Depth Elevation

Earthquake Activity

City Distance Mag. Time & Date
Minimum magnitude displayed is 2.5.

Coastal Water Temperatures

Place Temperature

Stations

Nearby Weather Stations

Station Location Temp. Windchill Dew Point Humidity Wind Precip. Elev Updated Type